sensor_id;sensor_type;location;lat;lon;timestamp;P1;durP1;ratioP1;P2;durP2;ratioP2
54143;SDS011;40050;47.324;18.792;2023-04-03T00:00:40;10.23;;;6.17;;
54143;SDS011;40050;47.324;18.792;2023-04-03T00:02:37;9.09;;;5.97;;
54143;SDS011;40050;47.324;18.792;2023-04-03T00:04:38;8.31;;;5.57;;
54143;SDS011;40050;47.324;18.792;2023-04-03T00:06:40;9.08;;;6.07;;
54143;SDS011;40050;47.324;18.792;2023-04-03T00:08:41;8.99;;;5.38;;
54143;SDS011;40050;47.324;18.792;2023-04-03T00:10:42;9.28;;;5.97;;
54143;SDS011;40050;47.324;18.792;2023-04-03T00:12:43;9.01;;;5.88;;
54143;SDS011;40050;47.324;18.792;2023-04-03T00:14:44;8.52;;;5.68;;
54143;SDS011;40050;47.324;18.792;2023-04-03T00:16:44;8.22;;;5.38;;
54143;SDS011;40050;47.324;18.792;2023-04-03T00:18:45;8.03;;;5.77;;
54143;SDS011;40050;47.324;18.792;2023-04-03T00:20:47;9.47;;;6.07;;
54143;SDS011;40050;47.324;18.792;2023-04-03T00:22:47;8.22;;;5.28;;
54143;SDS011;40050;47.324;18.792;2023-04-03T00:24:48;7.93;;;5.18;;
54143;SDS011;40050;47.324;18.792;2023-04-03T00:26:49;7.74;;;5.18;;
54143;SDS011;40050;47.324;18.792;2023-04-03T00:28:50;8.62;;;5.48;;
54143;SDS011;40050;47.324;18.792;2023-04-03T00:30:54;9.00;;;5.38;;
54143;SDS011;40050;47.324;18.792;2023-04-03T00:32:55;7.17;;;5.08;;
54143;SDS011;40050;47.324;18.792;2023-04-03T00:34:56;7.27;;;4.78;;
54143;SDS011;40050;47.324;18.792;2023-04-03T00:36:57;6.89;;;4.78;;
54143;SDS011;40050;47.324;18.792;2023-04-03T00:38:57;7.08;;;4.48;;
54143;SDS011;40050;47.324;18.792;2023-04-03T00:40:59;8.14;;;4.78;;
54143;SDS011;40050;47.324;18.792;2023-04-03T00:43:00;7.86;;;4.68;;
54143;SDS011;40050;47.324;18.792;2023-04-03T00:45:49;7.57;;;4.78;;
54143;SDS011;40050;47.324;18.792;2023-04-03T00:47:16;6.50;;;4.58;;
54143;SDS011;40050;47.324;18.792;2023-04-03T00:49:18;7.56;;;4.68;;
54143;SDS011;40050;47.324;18.792;2023-04-03T00:51:21;7.08;;;4.88;;
54143;SDS011;40050;47.324;18.792;2023-04-03T00:53:22;6.99;;;4.68;;
54143;SDS011;40050;47.324;18.792;2023-04-03T00:55:25;6.60;;;4.68;;
54143;SDS011;40050;47.324;18.792;2023-04-03T00:57:29;7.28;;;4.28;;
54143;SDS011;40050;47.324;18.792;2023-04-03T00:59:44;6.80;;;4.19;;
54143;SDS011;40050;47.324;18.792;2023-04-03T01:01:46;7.87;;;4.48;;
54143;SDS011;40050;47.324;18.792;2023-04-03T01:03:47;7.09;;;4.08;;
54143;SDS011;40050;47.324;18.792;2023-04-03T01:05:48;6.99;;;4.48;;
54143;SDS011;40050;47.324;18.792;2023-04-03T01:07:53;6.99;;;3.88;;
54143;SDS011;40050;47.324;18.792;2023-04-03T01:09:56;7.00;;;4.09;;
54143;SDS011;40050;47.324;18.792;2023-04-03T01:12:11;5.93;;;3.99;;
54143;SDS011;40050;47.324;18.792;2023-04-03T01:14:01;6.22;;;3.89;;
54143;SDS011;40050;47.324;18.792;2023-04-03T01:16:03;6.41;;;3.99;;
54143;SDS011;40050;47.324;18.792;2023-04-03T01:18:05;4.86;;;3.39;;
54143;SDS011;40050;47.324;18.792;2023-04-03T01:22:56;6.60;;;3.79;;
54143;SDS011;40050;47.324;18.792;2023-04-03T01:24:49;6.02;;;3.79;;
54143;SDS011;40050;47.324;18.792;2023-04-03T01:26:50;6.79;;;4.38;;
54143;SDS011;40050;47.324;18.792;2023-04-03T01:28:54;7.46;;;4.08;;
54143;SDS011;40050;47.324;18.792;2023-04-03T01:31:15;5.92;;;3.98;;
54143;SDS011;40050;47.324;18.792;2023-04-03T01:32:58;6.31;;;3.89;;
54143;SDS011;40050;47.324;18.792;2023-04-03T01:34:59;7.28;;;3.59;;
54143;SDS011;40050;47.324;18.792;2023-04-03T01:37:01;5.63;;;3.49;;
54143;SDS011;40050;47.324;18.792;2023-04-03T01:39:02;4.76;;;3.39;;
54143;SDS011;40050;47.324;18.792;2023-04-03T01:41:03;5.35;;;3.49;;
54143;SDS011;40050;47.324;18.792;2023-04-03T01:43:04;5.54;;;3.49;;
54143;SDS011;40050;47.324;18.792;2023-04-03T01:45:05;5.54;;;3.69;;
54143;SDS011;40050;47.324;18.792;2023-04-03T01:47:06;5.83;;;3.19;;
54143;SDS011;40050;47.324;18.792;2023-04-03T01:49:07;5.74;;;3.49;;
54143;SDS011;40050;47.324;18.792;2023-04-03T01:51:08;6.81;;;3.59;;
54143;SDS011;40050;47.324;18.792;2023-04-03T01:53:09;5.54;;;3.49;;
54143;SDS011;40050;47.324;18.792;2023-04-03T01:55:10;6.32;;;3.99;;
54143;SDS011;40050;47.324;18.792;2023-04-03T01:57:11;5.74;;;3.79;;
54143;SDS011;40050;47.324;18.792;2023-04-03T01:59:12;5.63;;;3.49;;
54143;SDS011;40050;47.324;18.792;2023-04-03T02:01:13;5.35;;;3.79;;
54143;SDS011;40050;47.324;18.792;2023-04-03T02:03:14;5.64;;;3.59;;
54143;SDS011;40050;47.324;18.792;2023-04-03T02:05:15;5.25;;;3.59;;
54143;SDS011;40050;47.324;18.792;2023-04-03T02:07:15;6.02;;;3.79;;
54143;SDS011;40050;47.324;18.792;2023-04-03T02:09:16;6.41;;;4.09;;
54143;SDS011;40050;47.324;18.792;2023-04-03T02:11:26;5.54;;;3.79;;
54143;SDS011;40050;47.324;18.792;2023-04-03T02:13:27;7.48;;;4.38;;
54143;SDS011;40050;47.324;18.792;2023-04-03T02:15:28;5.73;;;3.79;;
54143;SDS011;40050;47.324;18.792;2023-04-03T02:17:31;6.32;;;4.09;;
54143;SDS011;40050;47.324;18.792;2023-04-03T02:19:32;6.32;;;4.09;;
54143;SDS011;40050;47.324;18.792;2023-04-03T02:21:32;6.31;;;3.89;;
54143;SDS011;40050;47.324;18.792;2023-04-03T02:23:34;5.64;;;3.89;;
54143;SDS011;40050;47.324;18.792;2023-04-03T02:25:35;6.80;;;3.79;;
54143;SDS011;40050;47.324;18.792;2023-04-03T02:27:36;5.63;;;3.89;;
54143;SDS011;40050;47.324;18.792;2023-04-03T02:29:37;6.31;;;3.99;;
54143;SDS011;40050;47.324;18.792;2023-04-03T02:31:38;6.03;;;3.99;;
54143;SDS011;40050;47.324;18.792;2023-04-03T02:33:39;6.12;;;4.18;;
54143;SDS011;40050;47.324;18.792;2023-04-03T02:35:40;5.64;;;3.99;;
54143;SDS011;40050;47.324;18.792;2023-04-03T02:37:41;5.83;;;4.19;;
54143;SDS011;40050;47.324;18.792;2023-04-03T02:39:42;6.42;;;4.19;;
54143;SDS011;40050;47.324;18.792;2023-04-03T02:41:43;6.71;;;4.19;;
54143;SDS011;40050;47.324;18.792;2023-04-03T02:43:46;8.46;;;3.99;;
54143;SDS011;40050;47.324;18.792;2023-04-03T02:45:47;6.22;;;3.99;;
54143;SDS011;40050;47.324;18.792;2023-04-03T02:47:48;5.92;;;3.98;;
54143;SDS011;40050;47.324;18.792;2023-04-03T02:49:49;5.82;;;4.18;;
54143;SDS011;40050;47.324;18.792;2023-04-03T02:51:50;5.72;;;3.88;;
54143;SDS011;40050;47.324;18.792;2023-04-03T02:53:51;6.22;;;3.99;;
54143;SDS011;40050;47.324;18.792;2023-04-03T02:55:52;6.32;;;4.19;;
54143;SDS011;40050;47.324;18.792;2023-04-03T02:57:53;5.63;;;3.99;;
54143;SDS011;40050;47.324;18.792;2023-04-03T02:59:54;6.89;;;4.18;;
54143;SDS011;40050;47.324;18.792;2023-04-03T03:01:55;6.70;;;4.18;;
54143;SDS011;40050;47.324;18.792;2023-04-03T03:03:56;6.90;;;4.68;;
54143;SDS011;40050;47.324;18.792;2023-04-03T03:06:01;6.31;;;4.38;;
54143;SDS011;40050;47.324;18.792;2023-04-03T03:07:58;6.41;;;4.28;;
54143;SDS011;40050;47.324;18.792;2023-04-03T03:10:00;6.89;;;4.38;;
54143;SDS011;40050;47.324;18.792;2023-04-03T03:12:01;6.50;;;4.08;;
54143;SDS011;40050;47.324;18.792;2023-04-03T03:14:02;5.53;;;3.98;;
54143;SDS011;40050;47.324;18.792;2023-04-03T03:16:03;6.40;;;4.18;;
54143;SDS011;40050;47.324;18.792;2023-04-03T03:18:04;7.08;;;4.38;;
54143;SDS011;40050;47.324;18.792;2023-04-03T03:20:05;5.82;;;4.08;;
54143;SDS011;40050;47.324;18.792;2023-04-03T03:22:06;6.01;;;4.08;;
54143;SDS011;40050;47.324;18.792;2023-04-03T03:24:07;6.50;;;4.28;;
54143;SDS011;40050;47.324;18.792;2023-04-03T03:26:11;6.49;;;4.48;;
54143;SDS011;40050;47.324;18.792;2023-04-03T03:28:12;6.59;;;4.18;;
54143;SDS011;40050;47.324;18.792;2023-04-03T03:30:13;7.27;;;4.58;;
54143;SDS011;40050;47.324;18.792;2023-04-03T03:32:14;7.37;;;4.48;;
54143;SDS011;40050;47.324;18.792;2023-04-03T03:34:15;7.26;;;4.78;;
54143;SDS011;40050;47.324;18.792;2023-04-03T03:36:16;7.36;;;4.58;;
54143;SDS011;40050;47.324;18.792;2023-04-03T03:38:16;7.07;;;4.68;;
54143;SDS011;40050;47.324;18.792;2023-04-03T03:40:17;7.26;;;4.68;;
54143;SDS011;40050;47.324;18.792;2023-04-03T03:42:18;7.75;;;4.78;;
54143;SDS011;40050;47.324;18.792;2023-04-03T03:44:19;6.68;;;4.38;;
54143;SDS011;40050;47.324;18.792;2023-04-03T03:46:21;8.03;;;4.58;;
54143;SDS011;40050;47.324;18.792;2023-04-03T03:48:22;6.96;;;4.58;;
54143;SDS011;40050;47.324;18.792;2023-04-03T03:50:23;7.07;;;4.68;;
54143;SDS011;40050;47.324;18.792;2023-04-03T03:52:24;8.03;;;4.78;;
54143;SDS011;40050;47.324;18.792;2023-04-03T03:54:25;6.29;;;4.48;;
54143;SDS011;40050;47.324;18.792;2023-04-03T03:56:26;7.83;;;4.88;;
54143;SDS011;40050;47.324;18.792;2023-04-03T03:58:27;7.45;;;4.78;;
54143;SDS011;40050;47.324;18.792;2023-04-03T04:00:28;6.58;;;4.68;;
54143;SDS011;40050;47.324;18.792;2023-04-03T04:02:29;9.56;;;4.88;;
54143;SDS011;40050;47.324;18.792;2023-04-03T04:04:30;6.66;;;4.28;;
54143;SDS011;40050;47.324;18.792;2023-04-03T04:06:31;7.53;;;4.68;;
54143;SDS011;40050;47.324;18.792;2023-04-03T04:08:32;6.86;;;4.48;;
54143;SDS011;40050;47.324;18.792;2023-04-03T04:10:33;6.67;;;4.68;;
54143;SDS011;40050;47.324;18.792;2023-04-03T04:12:34;8.12;;;4.38;;
54143;SDS011;40050;47.324;18.792;2023-04-03T04:14:35;7.15;;;4.58;;
54143;SDS011;40050;47.324;18.792;2023-04-03T04:16:36;6.38;;;4.38;;
54143;SDS011;40050;47.324;18.792;2023-04-03T04:18:37;7.54;;;4.68;;
54143;SDS011;40050;47.324;18.792;2023-04-03T04:20:38;6.86;;;4.68;;
54143;SDS011;40050;47.324;18.792;2023-04-03T04:22:39;8.01;;;4.58;;
54143;SDS011;40050;47.324;18.792;2023-04-03T04:24:40;7.92;;;4.68;;
54143;SDS011;40050;47.324;18.792;2023-04-03T04:26:41;6.47;;;4.48;;
54143;SDS011;40050;47.324;18.792;2023-04-03T04:28:42;7.72;;;4.58;;
54143;SDS011;40050;47.324;18.792;2023-04-03T04:30:44;7.43;;;4.68;;
54143;SDS011;40050;47.324;18.792;2023-04-03T04:32:45;7.34;;;4.78;;
54143;SDS011;40050;47.324;18.792;2023-04-03T04:34:45;7.34;;;4.38;;
54143;SDS011;40050;47.324;18.792;2023-04-03T04:36:46;5.79;;;4.18;;
54143;SDS011;40050;47.324;18.792;2023-04-03T04:38:47;6.46;;;4.38;;
54143;SDS011;40050;47.324;18.792;2023-04-03T04:40:52;7.04;;;4.28;;
54143;SDS011;40050;47.324;18.792;2023-04-03T04:42:49;7.04;;;4.38;;
54143;SDS011;40050;47.324;18.792;2023-04-03T04:44:50;6.75;;;3.98;;
54143;SDS011;40050;47.324;18.792;2023-04-03T04:46:51;5.59;;;3.78;;
54143;SDS011;40050;47.324;18.792;2023-04-03T04:48:52;6.85;;;3.98;;
54143;SDS011;40050;47.324;18.792;2023-04-03T04:50:54;5.79;;;3.88;;
54143;SDS011;40050;47.324;18.792;2023-04-03T04:52:54;5.97;;;4.08;;
54143;SDS011;40050;47.324;18.792;2023-04-03T04:54:55;6.07;;;3.78;;
54143;SDS011;40050;47.324;18.792;2023-04-03T04:56:56;6.75;;;3.98;;
54143;SDS011;40050;47.324;18.792;2023-04-03T04:58:57;5.87;;;3.68;;
54143;SDS011;40050;47.324;18.792;2023-04-03T05:01:05;5.97;;;4.08;;
54143;SDS011;40050;47.324;18.792;2023-04-03T05:02:59;5.68;;;4.18;;
54143;SDS011;40050;47.324;18.792;2023-04-03T05:05:00;5.29;;;3.68;;
54143;SDS011;40050;47.324;18.792;2023-04-03T05:07:01;6.07;;;4.08;;
54143;SDS011;40050;47.324;18.792;2023-04-03T05:09:06;5.96;;;3.88;;
54143;SDS011;40050;47.324;18.792;2023-04-03T05:11:03;5.87;;;3.88;;
54143;SDS011;40050;47.324;18.792;2023-04-03T05:13:05;5.67;;;3.98;;
54143;SDS011;40050;47.324;18.792;2023-04-03T05:15:06;6.64;;;3.98;;
54143;SDS011;40050;47.324;18.792;2023-04-03T05:17:06;5.67;;;3.88;;
54143;SDS011;40050;47.324;18.792;2023-04-03T05:19:07;6.63;;;4.08;;
54143;SDS011;40050;47.324;18.792;2023-04-03T05:21:08;6.24;;;4.18;;
54143;SDS011;40050;47.324;18.792;2023-04-03T05:23:10;5.95;;;3.88;;
54143;SDS011;40050;47.324;18.792;2023-04-03T05:25:10;5.37;;;3.98;;
54143;SDS011;40050;47.324;18.792;2023-04-03T05:27:11;6.34;;;4.08;;
54143;SDS011;40050;47.324;18.792;2023-04-03T05:29:12;5.47;;;3.88;;
54143;SDS011;40050;47.324;18.792;2023-04-03T05:31:13;6.42;;;3.97;;
54143;SDS011;40050;47.324;18.792;2023-04-03T05:33:14;6.33;;;3.98;;
54143;SDS011;40050;47.324;18.792;2023-04-03T05:35:15;6.43;;;4.07;;
54143;SDS011;40050;47.324;18.792;2023-04-03T05:37:16;6.63;;;3.98;;
54143;SDS011;40050;47.324;18.792;2023-04-03T05:39:17;5.86;;;3.88;;
54143;SDS011;40050;47.324;18.792;2023-04-03T05:41:18;6.72;;;4.37;;
54143;SDS011;40050;47.324;18.792;2023-04-03T05:43:20;5.37;;;3.68;;
54143;SDS011;40050;47.324;18.792;2023-04-03T05:45:23;5.86;;;3.98;;
54143;SDS011;40050;47.324;18.792;2023-04-03T05:47:22;5.95;;;3.88;;
54143;SDS011;40050;47.324;18.792;2023-04-03T05:49:22;6.43;;;4.07;;
54143;SDS011;40050;47.324;18.792;2023-04-03T05:53:29;5.57;;;4.18;;
54143;SDS011;40050;47.324;18.792;2023-04-03T05:55:27;6.43;;;4.27;;
54143;SDS011;40050;47.324;18.792;2023-04-03T05:57:28;5.67;;;4.08;;
54143;SDS011;40050;47.324;18.792;2023-04-03T05:59:29;5.19;;;3.68;;
54143;SDS011;40050;47.324;18.792;2023-04-03T06:01:30;5.96;;;4.18;;
54143;SDS011;40050;47.324;18.792;2023-04-03T06:03:31;5.48;;;3.88;;
54143;SDS011;40050;47.324;18.792;2023-04-03T06:05:32;6.53;;;3.98;;
54143;SDS011;40050;47.324;18.792;2023-04-03T06:07:33;6.06;;;4.08;;
54143;SDS011;40050;47.324;18.792;2023-04-03T06:09:34;6.07;;;3.88;;
54143;SDS011;40050;47.324;18.792;2023-04-03T06:11:36;5.31;;;3.48;;
54143;SDS011;40050;47.324;18.792;2023-04-03T06:17:47;5.21;;;3.48;;
54143;SDS011;40050;47.324;18.792;2023-04-03T06:19:44;5.49;;;3.88;;
54143;SDS011;40050;47.324;18.792;2023-04-03T06:21:45;5.77;;;3.48;;
54143;SDS011;40050;47.324;18.792;2023-04-03T06:23:46;4.53;;;3.28;;
54143;SDS011;40050;47.324;18.792;2023-04-03T06:25:47;5.12;;;3.38;;
54143;SDS011;40050;47.324;18.792;2023-04-03T06:27:48;5.61;;;3.38;;
54143;SDS011;40050;47.324;18.792;2023-04-03T06:29:50;4.16;;;2.79;;
54143;SDS011;40050;47.324;18.792;2023-04-03T06:31:51;4.94;;;3.39;;
54143;SDS011;40050;47.324;18.792;2023-04-03T06:33:52;5.34;;;3.19;;
54143;SDS011;40050;47.324;18.792;2023-04-03T06:35:59;4.37;;;3.19;;
54143;SDS011;40050;47.324;18.792;2023-04-03T06:37:54;4.95;;;3.19;;
54143;SDS011;40050;47.324;18.792;2023-04-03T06:39:55;4.76;;;3.09;;
54143;SDS011;40050;47.324;18.792;2023-04-03T06:41:56;4.67;;;3.19;;
54143;SDS011;40050;47.324;18.792;2023-04-03T06:43:57;3.99;;;2.79;;
54143;SDS011;40050;47.324;18.792;2023-04-03T06:45:58;3.99;;;2.79;;
54143;SDS011;40050;47.324;18.792;2023-04-03T06:47:59;4.97;;;2.89;;
54143;SDS011;40050;47.324;18.792;2023-04-03T06:50:00;4.69;;;2.89;;
54143;SDS011;40050;47.324;18.792;2023-04-03T06:52:01;4.78;;;2.89;;
54143;SDS011;40050;47.324;18.792;2023-04-03T06:54:02;4.31;;;2.89;;
54143;SDS011;40050;47.324;18.792;2023-04-03T06:56:03;4.01;;;2.79;;
54143;SDS011;40050;47.324;18.792;2023-04-03T06:58:04;4.20;;;3.09;;
54143;SDS011;40050;47.324;18.792;2023-04-03T07:00:08;3.53;;;2.59;;
54143;SDS011;40050;47.324;18.792;2023-04-03T07:02:09;3.53;;;2.59;;
54143;SDS011;40050;47.324;18.792;2023-04-03T07:04:10;4.61;;;2.89;;
54143;SDS011;40050;47.324;18.792;2023-04-03T07:06:11;3.44;;;2.70;;
54143;SDS011;40050;47.324;18.792;2023-04-03T07:08:11;4.13;;;2.70;;
54143;SDS011;40050;47.324;18.792;2023-04-03T07:10:12;3.93;;;2.90;;
54143;SDS011;40050;47.324;18.792;2023-04-03T07:12:13;4.62;;;2.70;;
54143;SDS011;40050;47.324;18.792;2023-04-03T07:14:14;3.64;;;2.30;;
54143;SDS011;40050;47.324;18.792;2023-04-03T07:16:15;3.74;;;2.50;;
54143;SDS011;40050;47.324;18.792;2023-04-03T07:18:16;3.15;;;2.30;;
54143;SDS011;40050;47.324;18.792;2023-04-03T07:20:17;3.15;;;2.30;;
54143;SDS011;40050;47.324;18.792;2023-04-03T07:22:18;3.35;;;2.20;;
54143;SDS011;40050;47.324;18.792;2023-04-03T07:24:19;3.94;;;2.30;;
54143;SDS011;40050;47.324;18.792;2023-04-03T07:26:21;4.14;;;2.80;;
54143;SDS011;40050;47.324;18.792;2023-04-03T07:28:22;2.95;;;2.40;;
54143;SDS011;40050;47.324;18.792;2023-04-03T07:30:23;3.15;;;2.40;;
54143;SDS011;40050;47.324;18.792;2023-04-03T07:32:24;3.16;;;2.30;;
54143;SDS011;40050;47.324;18.792;2023-04-03T07:34:25;3.16;;;2.40;;
54143;SDS011;40050;47.324;18.792;2023-04-03T07:36:25;3.16;;;2.10;;
54143;SDS011;40050;47.324;18.792;2023-04-03T07:38:26;4.45;;;2.30;;
54143;SDS011;40050;47.324;18.792;2023-04-03T07:40:27;3.46;;;2.30;;
54143;SDS011;40050;47.324;18.792;2023-04-03T07:42:28;3.07;;;2.10;;
54143;SDS011;40050;47.324;18.792;2023-04-03T07:44:29;3.36;;;1.80;;
54143;SDS011;40050;47.324;18.792;2023-04-03T07:46:30;3.07;;;2.30;;
54143;SDS011;40050;47.324;18.792;2023-04-03T07:48:31;3.66;;;2.30;;
54143;SDS011;40050;47.324;18.792;2023-04-03T07:50:32;2.77;;;1.90;;
54143;SDS011;40050;47.324;18.792;2023-04-03T07:52:33;2.77;;;1.80;;
54143;SDS011;40050;47.324;18.792;2023-04-03T07:54:34;2.97;;;1.90;;
54143;SDS011;40050;47.324;18.792;2023-04-03T07:56:35;4.45;;;1.80;;
54143;SDS011;40050;47.324;18.792;2023-04-03T07:58:36;4.84;;;2.00;;
54143;SDS011;40050;47.324;18.792;2023-04-03T08:00:38;3.07;;;1.90;;
54143;SDS011;40050;47.324;18.792;2023-04-03T08:02:43;2.57;;;1.80;;
54143;SDS011;40050;47.324;18.792;2023-04-03T08:04:43;2.67;;;1.60;;
54143;SDS011;40050;47.324;18.792;2023-04-03T08:06:44;2.37;;;1.70;;
54143;SDS011;40050;47.324;18.792;2023-04-03T08:08:46;1.98;;;1.70;;
54143;SDS011;40050;47.324;18.792;2023-04-03T08:10:48;3.36;;;1.70;;
54143;SDS011;40050;47.324;18.792;2023-04-03T08:12:48;2.97;;;1.60;;
54143;SDS011;40050;47.324;18.792;2023-04-03T08:14:49;2.97;;;1.70;;
54143;SDS011;40050;47.324;18.792;2023-04-03T08:16:52;3.76;;;1.70;;
54143;SDS011;40050;47.324;18.792;2023-04-03T08:18:53;2.08;;;1.50;;
54143;SDS011;40050;47.324;18.792;2023-04-03T08:20:53;2.18;;;1.60;;
54143;SDS011;40050;47.324;18.792;2023-04-03T08:22:54;2.37;;;1.50;;
54143;SDS011;40050;47.324;18.792;2023-04-03T08:24:56;2.47;;;1.50;;
54143;SDS011;40050;47.324;18.792;2023-04-03T08:26:56;2.18;;;1.50;;
54143;SDS011;40050;47.324;18.792;2023-04-03T08:28:57;3.07;;;1.60;;
54143;SDS011;40050;47.324;18.792;2023-04-03T08:31:02;3.17;;;1.60;;
54143;SDS011;40050;47.324;18.792;2023-04-03T08:33:02;1.98;;;1.50;;
54143;SDS011;40050;47.324;18.792;2023-04-03T08:35:00;1.98;;;1.40;;
54143;SDS011;40050;47.324;18.792;2023-04-03T08:37:01;2.08;;;1.30;;
54143;SDS011;40050;47.324;18.792;2023-04-03T08:39:02;2.28;;;1.40;;
54143;SDS011;40050;47.324;18.792;2023-04-03T08:41:48;1.98;;;1.50;;
54143;SDS011;40050;47.324;18.792;2023-04-03T08:43:30;2.18;;;1.50;;
54143;SDS011;40050;47.324;18.792;2023-04-03T08:47:43;1.78;;;1.30;;
54143;SDS011;40050;47.324;18.792;2023-04-03T08:49:42;2.47;;;1.50;;
54143;SDS011;40050;47.324;18.792;2023-04-03T08:51:46;1.98;;;1.30;;
54143;SDS011;40050;47.324;18.792;2023-04-03T08:53:58;1.98;;;1.40;;
54143;SDS011;40050;47.324;18.792;2023-04-03T08:56:05;1.98;;;1.10;;
54143;SDS011;40050;47.324;18.792;2023-04-03T08:58:09;1.98;;;1.20;;
54143;SDS011;40050;47.324;18.792;2023-04-03T09:02:56;2.18;;;1.40;;
54143;SDS011;40050;47.324;18.792;2023-04-03T09:04:12;2.37;;;1.30;;
54143;SDS011;40050;47.324;18.792;2023-04-03T09:06:18;1.78;;;1.40;;
54143;SDS011;40050;47.324;18.792;2023-04-03T09:10:23;2.18;;;1.60;;
54143;SDS011;40050;47.324;18.792;2023-04-03T09:12:37;1.78;;;1.30;;
54143;SDS011;40050;47.324;18.792;2023-04-03T09:17:13;2.58;;;1.20;;
54143;SDS011;40050;47.324;18.792;2023-04-03T09:19:20;1.88;;;1.40;;
54143;SDS011;40050;47.324;18.792;2023-04-03T09:21:21;2.08;;;1.30;;
54143;SDS011;40050;47.324;18.792;2023-04-03T09:23:28;1.98;;;1.50;;
54143;SDS011;40050;47.324;18.792;2023-04-03T09:25:31;1.59;;;1.20;;
54143;SDS011;40050;47.324;18.792;2023-04-03T09:27:38;1.98;;;1.30;;
54143;SDS011;40050;47.324;18.792;2023-04-03T09:29:41;2.58;;;1.50;;
54143;SDS011;40050;47.324;18.792;2023-04-03T09:31:48;1.79;;;1.30;;
54143;SDS011;40050;47.324;18.792;2023-04-03T09:34:06;1.59;;;1.40;;
54143;SDS011;40050;47.324;18.792;2023-04-03T09:36:02;2.09;;;1.30;;
54143;SDS011;40050;47.324;18.792;2023-04-03T09:38:14;1.79;;;1.20;;
54143;SDS011;40050;47.324;18.792;2023-04-03T09:42:47;2.09;;;1.50;;
54143;SDS011;40050;47.324;18.792;2023-04-03T09:44:55;3.68;;;1.30;;
54143;SDS011;40050;47.324;18.792;2023-04-03T09:47:17;1.99;;;1.30;;
54143;SDS011;40050;47.324;18.792;2023-04-03T09:49:02;1.59;;;0.90;;
54143;SDS011;40050;47.324;18.792;2023-04-03T09:51:02;1.59;;;1.00;;
54143;SDS011;40050;47.324;18.792;2023-04-03T09:53:07;1.39;;;1.10;;
54143;SDS011;40050;47.324;18.792;2023-04-03T09:55:07;1.89;;;1.10;;
54143;SDS011;40050;47.324;18.792;2023-04-03T09:57:08;1.69;;;1.20;;
54143;SDS011;40050;47.324;18.792;2023-04-03T09:59:13;1.69;;;1.00;;
54143;SDS011;40050;47.324;18.792;2023-04-03T10:01:21;1.79;;;0.90;;
54143;SDS011;40050;47.324;18.792;2023-04-03T10:03:29;2.39;;;1.20;;
54143;SDS011;40050;47.324;18.792;2023-04-03T10:05:35;1.39;;;1.00;;
54143;SDS011;40050;47.324;18.792;2023-04-03T10:09:30;1.99;;;1.10;;
54143;SDS011;40050;47.324;18.792;2023-04-03T10:11:56;1.39;;;1.00;;
54143;SDS011;40050;47.324;18.792;2023-04-03T10:13:50;1.29;;;1.00;;
54143;SDS011;40050;47.324;18.792;2023-04-03T10:16:31;1.49;;;1.20;;
54143;SDS011;40050;47.324;18.792;2023-04-03T10:18:27;1.59;;;1.00;;
54143;SDS011;40050;47.324;18.792;2023-04-03T10:25:02;1.79;;;1.00;;
54143;SDS011;40050;47.324;18.792;2023-04-03T10:27:10;1.59;;;1.00;;
54143;SDS011;40050;47.324;18.792;2023-04-03T10:34:05;0.90;;;0.80;;
54143;SDS011;40050;47.324;18.792;2023-04-03T10:36:35;1.39;;;1.10;;
54143;SDS011;40050;47.324;18.792;2023-04-03T10:40:46;1.29;;;1.10;;
54143;SDS011;40050;47.324;18.792;2023-04-03T10:42:50;1.69;;;1.20;;
54143;SDS011;40050;47.324;18.792;2023-04-03T10:50:03;1.10;;;0.90;;
54143;SDS011;40050;47.324;18.792;2023-04-03T10:51:55;2.89;;;1.10;;
54143;SDS011;40050;47.324;18.792;2023-04-03T10:53:56;1.99;;;1.00;;
54143;SDS011;40050;47.324;18.792;2023-04-03T10:58:27;1.49;;;0.90;;
54143;SDS011;40050;47.324;18.792;2023-04-03T11:00:25;1.00;;;0.90;;
54143;SDS011;40050;47.324;18.792;2023-04-03T11:02:44;1.20;;;1.00;;
54143;SDS011;40050;47.324;18.792;2023-04-03T11:04:29;1.30;;;1.00;;
54143;SDS011;40050;47.324;18.792;2023-04-03T11:06:37;1.50;;;1.10;;
54143;SDS011;40050;47.324;18.792;2023-04-03T11:08:44;1.20;;;1.00;;
54143;SDS011;40050;47.324;18.792;2023-04-03T11:10:43;1.00;;;0.90;;
54143;SDS011;40050;47.324;18.792;2023-04-03T11:13:02;1.10;;;0.90;;
54143;SDS011;40050;47.324;18.792;2023-04-03T11:15:04;1.00;;;0.80;;
54143;SDS011;40050;47.324;18.792;2023-04-03T11:19:22;1.49;;;1.20;;
54143;SDS011;40050;47.324;18.792;2023-04-03T11:21:27;2.19;;;1.10;;
54143;SDS011;40050;47.324;18.792;2023-04-03T11:23:25;2.29;;;1.10;;
54143;SDS011;40050;47.324;18.792;2023-04-03T11:25:29;1.30;;;0.90;;
54143;SDS011;40050;47.324;18.792;2023-04-03T11:27:55;2.69;;;1.20;;
54143;SDS011;40050;47.324;18.792;2023-04-03T11:29:42;1.69;;;1.00;;
54143;SDS011;40050;47.324;18.792;2023-04-03T11:36:19;1.89;;;1.20;;
54143;SDS011;40050;47.324;18.792;2023-04-03T11:38:26;1.29;;;0.90;;
54143;SDS011;40050;47.324;18.792;2023-04-03T11:40:35;1.69;;;1.30;;
54143;SDS011;40050;47.324;18.792;2023-04-03T11:47:47;2.49;;;1.20;;
54143;SDS011;40050;47.324;18.792;2023-04-03T11:53:28;1.59;;;1.20;;
54143;SDS011;40050;47.324;18.792;2023-04-03T11:57:46;1.89;;;1.30;;
54143;SDS011;40050;47.324;18.792;2023-04-03T11:59:48;2.89;;;1.50;;
54143;SDS011;40050;47.324;18.792;2023-04-03T12:02:00;3.19;;;1.60;;
54143;SDS011;40050;47.324;18.792;2023-04-03T12:04:23;2.59;;;1.50;;
54143;SDS011;40050;47.324;18.792;2023-04-03T12:06:41;2.79;;;1.60;;
54143;SDS011;40050;47.324;18.792;2023-04-03T12:08:59;1.30;;;1.10;;
54143;SDS011;40050;47.324;18.792;2023-04-03T12:13:15;1.29;;;1.10;;
54143;SDS011;40050;47.324;18.792;2023-04-03T12:15:23;2.99;;;1.40;;
54143;SDS011;40050;47.324;18.792;2023-04-03T12:17:25;1.79;;;1.50;;
54143;SDS011;40050;47.324;18.792;2023-04-03T12:19:34;2.39;;;1.60;;
54143;SDS011;40050;47.324;18.792;2023-04-03T12:23:56;1.69;;;1.30;;
54143;SDS011;40050;47.324;18.792;2023-04-03T12:26:21;1.10;;;0.90;;
54143;SDS011;40050;47.324;18.792;2023-04-03T12:28:22;1.69;;;1.40;;
54143;SDS011;40050;47.324;18.792;2023-04-03T12:30:29;3.59;;;1.20;;
54143;SDS011;40050;47.324;18.792;2023-04-03T12:32:48;1.49;;;1.20;;
54143;SDS011;40050;47.324;18.792;2023-04-03T12:39:52;4.29;;;1.70;;
54143;SDS011;40050;47.324;18.792;2023-04-03T12:42:18;2.29;;;1.50;;
54143;SDS011;40050;47.324;18.792;2023-04-03T12:46:45;1.69;;;1.30;;
54143;SDS011;40050;47.324;18.792;2023-04-03T12:48:54;2.39;;;1.20;;
54143;SDS011;40050;47.324;18.792;2023-04-03T12:50:56;2.09;;;1.40;;
54143;SDS011;40050;47.324;18.792;2023-04-03T12:53:18;2.59;;;1.60;;
54143;SDS011;40050;47.324;18.792;2023-04-03T12:55:26;1.99;;;1.70;;
54143;SDS011;40050;47.324;18.792;2023-04-03T12:57:42;1.79;;;1.30;;
54143;SDS011;40050;47.324;18.792;2023-04-03T12:59:58;2.29;;;1.90;;
54143;SDS011;40050;47.324;18.792;2023-04-03T13:02:10;3.79;;;1.90;;
54143;SDS011;40050;47.324;18.792;2023-04-03T13:04:00;1.69;;;1.40;;
54143;SDS011;40050;47.324;18.792;2023-04-03T13:06:06;1.99;;;1.50;;
54143;SDS011;40050;47.324;18.792;2023-04-03T13:10:15;1.99;;;1.40;;
54143;SDS011;40050;47.324;18.792;2023-04-03T13:12:16;1.79;;;1.30;;
54143;SDS011;40050;47.324;18.792;2023-04-03T13:14:38;4.09;;;1.60;;
54143;SDS011;40050;47.324;18.792;2023-04-03T13:16:40;2.89;;;1.40;;
54143;SDS011;40050;47.324;18.792;2023-04-03T13:18:57;2.19;;;1.40;;
54143;SDS011;40050;47.324;18.792;2023-04-03T13:25:31;2.69;;;2.00;;